Time;durP1;ratioP1;P1;durP2;ratioP2;P2;SDS_P1;SDS_P2;PMS_P1;PMS_P2;Temp;Humidity;BMP_temperature;BMP_pressure;BME280_temperature;BME280_humidity;BME280_pressure;Samples;Min_cycle;Max_cycle;Signal;HPM_P1;HPM_P2
2023/08/29 00:01:25;;;;;;;6.83;6.10;;;16.00;99.90;;;;;;5095811;28;20180;-76
2023/08/29 00:03:51;;;;;;;8.47;6.20;;;16.00;99.90;;;;;;5095374;28;20175;-75
2023/08/29 00:06:17;;;;;;;6.90;6.30;;;16.00;99.90;;;;;;5093947;28;20180;-75
2023/08/29 00:08:43;;;;;;;9.63;6.43;;;16.00;99.90;;;;;;5095486;28;20183;-76
2023/08/29 00:11:09;;;;;;;6.83;6.23;;;16.00;99.90;;;;;;5095475;28;20168;-76
2023/08/29 00:13:34;;;;;;;7.20;6.37;;;16.00;99.90;;;;;;5094164;28;20211;-75
2023/08/29 00:16:00;;;;;;;7.03;6.20;;;16.00;99.90;;;;;;5093966;28;20198;-75
2023/08/29 00:18:26;;;;;;;6.67;6.13;;;16.00;99.90;;;;;;5094602;28;20729;-75
2023/08/29 00:20:52;;;;;;;7.20;6.53;;;16.00;99.90;;;;;;5095262;28;20213;-75
2023/08/29 00:23:18;;;;;;;7.50;6.80;;;16.00;99.90;;;;;;5095307;28;20186;-75
2023/08/29 00:25:44;;;;;;;7.77;6.80;;;16.00;99.90;;;;;;5095186;28;20175;-75
2023/08/29 00:28:11;;;;;;;10.60;9.40;;;15.90;99.90;;;;;;5095089;28;20184;-76
2023/08/29 00:30:38;;;;;;;7.17;6.50;;;15.90;99.90;;;;;;5094963;28;20180;-76
2023/08/29 00:33:04;;;;;;;7.23;6.63;;;15.90;99.90;;;;;;5094500;28;20212;-75
2023/08/29 00:35:30;;;;;;;8.90;6.83;;;15.90;99.90;;;;;;5094815;28;20200;-74
2023/08/29 00:37:57;;;;;;;7.43;6.77;;;15.90;99.90;;;;;;5094796;28;20657;-76
2023/08/29 00:40:25;;;;;;;8.37;7.07;;;15.90;99.90;;;;;;5094852;28;20188;-75
2023/08/29 00:42:50;;;;;;;8.60;7.90;;;15.90;99.90;;;;;;5094815;28;20187;-75
2023/08/29 00:45:16;;;;;;;7.80;7.10;;;15.90;99.90;;;;;;5094592;28;20175;-75
2023/08/29 00:47:42;;;;;;;9.27;8.37;;;15.80;99.90;;;;;;5094384;28;20175;-75
2023/08/29 00:50:08;;;;;;;9.33;8.40;;;15.80;99.90;;;;;;5094549;28;20179;-76
2023/08/29 00:52:34;;;;;;;9.50;8.60;;;15.70;99.90;;;;;;5094535;28;20208;-75
2023/08/29 00:55:00;;;;;;;9.93;8.73;;;15.70;99.90;;;;;;5094594;28;20178;-75
2023/08/29 00:57:26;;;;;;;9.47;8.63;;;15.70;99.90;;;;;;5094611;28;20175;-74
2023/08/29 00:59:51;;;;;;;10.60;9.60;;;15.70;99.90;;;;;;5093711;28;20172;-75
2023/08/29 01:02:18;;;;;;;10.73;9.67;;;15.70;99.90;;;;;;5094162;28;20616;-75
2023/08/29 01:04:43;;;;;;;9.93;9.03;;;15.60;99.90;;;;;;5094148;28;20215;-75
2023/08/29 01:07:09;;;;;;;11.50;9.13;;;15.50;99.90;;;;;;5094374;28;20179;-74
2023/08/29 01:09:35;;;;;;;10.87;9.83;;;15.50;99.90;;;;;;5094443;28;20225;-74
2023/08/29 01:12:37;;;;;;;11.17;10.07;;;15.50;99.90;;;;;;5094230;28;20215;-75
2023/08/29 01:15:18;;;;;;;12.13;10.93;;;15.40;99.90;;;;;;5093989;28;20202;-73
2023/08/29 01:17:48;;;;;;;13.03;11.80;;;15.40;99.90;;;;;;5094226;28;20180;-74
2023/08/29 01:20:16;;;;;;;12.63;11.27;;;15.40;99.90;;;;;;5093866;28;20350;-73
2023/08/29 01:23:03;;;;;;;12.87;11.57;;;15.40;99.90;;;;;;5094090;28;20175;-73
2023/08/29 01:25:58;;;;;;;14.53;11.83;;;15.30;99.90;;;;;;5093726;28;20562;-73
2023/08/29 01:28:24;;;;;;;14.20;12.90;;;15.40;99.90;;;;;;5083191;28;20215;-74
2023/08/29 01:30:51;;;;;;;15.93;13.70;;;15.40;99.90;;;;;;5093639;28;20631;-74
2023/08/29 01:33:16;;;;;;;16.27;14.63;;;15.40;99.90;;;;;;5093823;28;20326;-73
2023/08/29 01:35:46;;;;;;;16.20;14.60;;;15.30;99.90;;;;;;5092586;28;20670;-74
2023/08/29 01:38:12;;;;;;;15.27;13.67;;;15.40;99.90;;;;;;5093790;28;20255;-75
2023/08/29 01:40:39;;;;;;;15.77;14.20;;;15.30;99.90;;;;;;5093714;28;20701;-75
2023/08/29 01:43:05;;;;;;;16.40;14.53;;;15.30;99.90;;;;;;5093822;28;20179;-75
2023/08/29 01:45:30;;;;;;;15.37;13.77;;;15.30;99.90;;;;;;5093452;28;20172;-74
2023/08/29 01:47:56;;;;;;;15.73;13.83;;;15.30;99.90;;;;;;5093673;28;20172;-74
2023/08/29 01:50:23;;;;;;;16.23;14.53;;;15.30;99.90;;;;;;5093622;28;20594;-74
2023/08/29 01:52:49;;;;;;;16.13;14.50;;;15.40;99.90;;;;;;5093365;28;20203;-74
2023/08/29 01:55:15;;;;;;;15.70;14.10;;;15.50;99.90;;;;;;5093676;28;20229;-74
2023/08/29 01:57:43;;;;;;;15.43;13.93;;;15.50;99.90;;;;;;5093499;28;20639;-73
2023/08/29 02:00:09;;;;;;;14.80;13.27;;;15.50;99.90;;;;;;5093313;28;20217;-74
2023/08/29 02:02:35;;;;;;;15.90;14.17;;;15.60;99.90;;;;;;5093437;28;20178;-74
2023/08/29 02:05:00;;;;;;;14.70;13.30;;;15.60;99.90;;;;;;5093390;28;20172;-73
2023/08/29 02:07:26;;;;;;;17.10;14.03;;;15.70;99.90;;;;;;5093454;28;20240;-74
2023/08/29 02:09:51;;;;;;;14.67;13.33;;;15.70;99.90;;;;;;5093298;28;20258;-74
2023/08/29 02:12:17;;;;;;;15.30;13.70;;;15.70;99.90;;;;;;5093305;28;20286;-73
2023/08/29 02:14:43;;;;;;;15.37;13.60;;;15.60;99.90;;;;;;5093017;28;20539;-73
2023/08/29 02:17:09;;;;;;;14.33;12.43;;;15.50;99.90;;;;;;5093349;28;20211;-74
2023/08/29 02:19:34;;;;;;;15.03;13.37;;;15.50;99.90;;;;;;5092801;28;20223;-75
2023/08/29 02:22:00;;;;;;;14.23;12.83;;;15.40;99.90;;;;;;5093240;28;20311;-75
2023/08/29 02:24:26;;;;;;;15.23;12.57;;;15.40;99.90;;;;;;5093087;28;20198;-74
2023/08/29 02:26:52;;;;;;;14.37;12.83;;;15.40;99.90;;;;;;5092022;28;20255;-74
2023/08/29 02:29:17;;;;;;;14.63;13.23;;;15.40;99.90;;;;;;5092969;28;20200;-75
2023/08/29 02:31:43;;;;;;;18.73;13.37;;;15.40;99.90;;;;;;5093155;28;20176;-75
2023/08/29 02:34:08;;;;;;;15.10;13.57;;;15.40;99.90;;;;;;5093167;28;20179;-74
2023/08/29 02:36:34;;;;;;;15.13;13.70;;;15.40;99.90;;;;;;5092989;28;20279;-75
2023/08/29 02:39:00;;;;;;;14.53;13.03;;;15.40;99.90;;;;;;5093144;28;20171;-74
2023/08/29 02:41:25;;;;;;;15.90;12.67;;;15.30;99.90;;;;;;5092827;28;20180;-73
2023/08/29 02:43:51;;;;;;;14.80;13.20;;;15.30;99.90;;;;;;5092952;28;20534;-74
2023/08/29 02:46:16;;;;;;;16.67;13.60;;;15.20;99.90;;;;;;5092991;28;20179;-74
2023/08/29 02:48:42;;;;;;;15.80;14.07;;;15.20;99.90;;;;;;5093165;28;20259;-74
2023/08/29 02:51:08;;;;;;;16.40;14.57;;;15.20;99.90;;;;;;5092909;28;20179;-75
2023/08/29 02:53:33;;;;;;;14.90;13.40;;;15.20;99.90;;;;;;5092744;28;20203;-75
2023/08/29 02:55:59;;;;;;;16.07;14.40;;;15.20;99.90;;;;;;5092786;28;20305;-75
2023/08/29 02:58:25;;;;;;;16.77;14.50;;;15.20;99.90;;;;;;5092236;28;20172;-75
2023/08/29 03:00:56;;;;;;;18.90;15.10;;;15.20;99.90;;;;;;5092673;28;20628;-75
2023/08/29 03:03:22;;;;;;;17.80;15.20;;;15.30;99.90;;;;;;5092874;28;20248;-75
2023/08/29 03:05:55;;;;;;;17.70;15.90;;;15.30;99.90;;;;;;5091490;28;20179;-74
2023/08/29 03:08:21;;;;;;;17.53;14.40;;;15.30;99.90;;;;;;5092928;28;20200;-75
2023/08/29 03:10:47;;;;;;;17.27;14.67;;;15.40;99.90;;;;;;5092754;28;20588;-74
2023/08/29 03:13:12;;;;;;;16.07;14.00;;;15.40;99.90;;;;;;5092358;28;20679;-75
2023/08/29 03:15:40;;;;;;;15.17;13.77;;;15.50;99.90;;;;;;5092728;28;20214;-74
2023/08/29 03:18:05;;;;;;;16.43;13.37;;;15.40;99.90;;;;;;5092128;28;20176;-74
2023/08/29 03:20:31;;;;;;;15.87;14.20;;;15.50;99.90;;;;;;5092449;28;20186;-75
2023/08/29 03:22:57;;;;;;;17.50;15.63;;;15.50;99.90;;;;;;5094352;28;20187;-75
2023/08/29 03:25:22;;;;;;;17.47;15.10;;;15.50;99.90;;;;;;5096057;28;20665;-75
2023/08/29 03:27:49;;;;;;;18.47;15.37;;;15.50;99.90;;;;;;5096039;28;20172;-74
2023/08/29 03:30:15;;;;;;;17.93;15.93;;;15.50;99.90;;;;;;5096025;28;20176;-75
2023/08/29 03:32:41;;;;;;;18.03;15.87;;;15.50;99.90;;;;;;5095876;28;20214;-75
2023/08/29 03:35:07;;;;;;;18.50;15.77;;;15.50;99.90;;;;;;5095775;28;20640;-75
2023/08/29 03:37:33;;;;;;;20.30;15.80;;;15.40;99.90;;;;;;5095898;28;20233;-75
2023/08/29 03:39:59;;;;;;;20.77;15.53;;;15.40;99.90;;;;;;5094684;28;20227;-75
2023/08/29 03:42:24;;;;;;;17.77;15.83;;;15.30;99.90;;;;;;5095631;28;20180;-75
2023/08/29 03:44:50;;;;;;;19.23;16.47;;;15.30;99.90;;;;;;5095866;28;20631;-74
2023/08/29 03:47:16;;;;;;;18.83;16.73;;;15.30;99.90;;;;;;5095697;28;20172;-75
2023/08/29 03:49:41;;;;;;;19.40;17.40;;;15.30;99.90;;;;;;5095508;28;20499;-74
2023/08/29 03:52:07;;;;;;;21.33;18.20;;;15.30;99.90;;;;;;5095231;28;20286;-75
2023/08/29 03:54:32;;;;;;;24.90;17.63;;;15.30;99.90;;;;;;5093610;28;20176;-75
2023/08/29 03:56:58;;;;;;;24.30;18.87;;;15.30;99.90;;;;;;5094977;28;20172;-75
2023/08/29 03:59:23;;;;;;;21.27;19.00;;;15.30;99.90;;;;;;5095557;28;20178;-74
2023/08/29 04:01:49;;;;;;;23.57;19.90;;;15.30;99.90;;;;;;5094915;28;20257;-75
2023/08/29 04:04:15;;;;;;;23.43;20.10;;;15.30;99.90;;;;;;5095294;28;20242;-75
2023/08/29 04:06:41;;;;;;;23.63;21.03;;;15.20;99.90;;;;;;5095175;28;20176;-74
2023/08/29 04:09:08;;;;;;;24.90;20.50;;;15.20;99.90;;;;;;5095379;28;20190;-74
2023/08/29 04:11:34;;;;;;;25.37;20.90;;;15.20;99.90;;;;;;5094726;28;20187;-74
2023/08/29 04:14:00;;;;;;;27.13;22.47;;;15.20;99.90;;;;;;5095219;28;20180;-75
2023/08/29 04:16:26;;;;;;;24.63;21.57;;;15.20;99.90;;;;;;5094863;28;20164;-74
2023/08/29 04:18:52;;;;;;;28.13;24.17;;;15.20;99.90;;;;;;5094695;28;20216;-75
2023/08/29 04:21:17;;;;;;;26.57;22.43;;;15.10;99.90;;;;;;5094746;28;20607;-75
2023/08/29 04:23:43;;;;;;;28.93;22.67;;;15.10;99.90;;;;;;5095271;28;20172;-75
2023/08/29 04:26:08;;;;;;;26.47;22.90;;;15.10;99.90;;;;;;5094312;28;20292;-75
2023/08/29 04:28:34;;;;;;;29.80;23.50;;;15.10;99.90;;;;;;5094744;28;20572;-75
2023/08/29 04:31:09;;;;;;;30.80;24.43;;;15.10;99.90;;;;;;5094325;28;20664;-75
2023/08/29 04:33:35;;;;;;;29.87;23.67;;;15.10;99.90;;;;;;5094057;28;20214;-75
2023/08/29 04:36:01;;;;;;;29.83;23.47;;;15.10;99.90;;;;;;5094207;28;20172;-75
2023/08/29 04:38:26;;;;;;;34.13;24.50;;;15.10;99.90;;;;;;5093831;28;20172;-75
2023/08/29 04:40:55;;;;;;;31.63;23.70;;;15.20;99.90;;;;;;5094646;28;20230;-75
2023/08/29 04:43:21;;;;;;;30.13;23.63;;;15.30;99.90;;;;;;5094465;28;20172;-75
2023/08/29 04:45:46;;;;;;;29.93;24.00;;;15.30;99.90;;;;;;5093902;28;20188;-76
2023/08/29 04:48:12;;;;;;;29.73;23.90;;;15.30;99.90;;;;;;5094517;28;20176;-75
2023/08/29 04:50:39;;;;;;;29.50;22.43;;;15.40;99.90;;;;;;5094025;28;20179;-75
2023/08/29 04:53:05;;;;;;;28.67;23.07;;;15.50;99.90;;;;;;5093655;28;20211;-75
2023/08/29 04:55:30;;;;;;;33.43;23.07;;;15.50;99.90;;;;;;5094025;28;20170;-75
2023/08/29 04:57:57;;;;;;;32.70;22.47;;;15.60;99.90;;;;;;5092791;28;20175;-75
2023/08/29 05:00:23;;;;;;;28.93;22.40;;;15.50;99.90;;;;;;5092870;28;20277;-76
2023/08/29 05:02:49;;;;;;;28.27;22.17;;;15.50;99.90;;;;;;5093758;28;20631;-75
2023/08/29 05:05:14;;;;;;;26.47;21.67;;;15.60;99.90;;;;;;5093702;28;20247;-76
2023/08/29 05:07:40;;;;;;;30.17;21.90;;;15.60;99.90;;;;;;5093590;28;20233;-75
2023/08/29 05:10:06;;;;;;;27.50;21.43;;;15.60;99.90;;;;;;5093756;28;20183;-75
2023/08/29 05:12:32;;;;;;;29.60;20.63;;;15.60;99.90;;;;;;5093308;28;20231;-75
2023/08/29 05:14:58;;;;;;;24.03;20.80;;;15.70;99.90;;;;;;5093229;28;20207;-74
2023/08/29 05:17:23;;;;;;;26.43;20.20;;;15.80;99.90;;;;;;5093799;28;20176;-74
2023/08/29 05:19:51;;;;;;;22.50;18.93;;;15.80;99.90;;;;;;5093301;28;20219;-76
2023/08/29 05:22:16;;;;;;;22.67;19.37;;;15.80;99.90;;;;;;5093074;28;20198;-75
2023/08/29 05:24:42;;;;;;;24.40;20.00;;;15.90;99.90;;;;;;5093570;28;20643;-75
2023/08/29 05:27:07;;;;;;;23.17;19.70;;;15.90;99.90;;;;;;5093254;28;20172;-73
2023/08/29 05:29:33;;;;;;;25.93;18.57;;;16.00;99.90;;;;;;5093129;28;20179;-73
2023/08/29 05:31:59;;;;;;;23.20;19.50;;;16.10;99.90;;;;;;5092895;28;20261;-75
2023/08/29 05:34:24;;;;;;;24.50;19.30;;;16.10;99.90;;;;;;5092711;28;20646;-75
2023/08/29 05:36:51;;;;;;;24.33;18.27;;;16.10;99.90;;;;;;5092604;28;20172;-75
2023/08/29 05:39:16;;;;;;;22.53;19.10;;;16.00;99.90;;;;;;5093472;28;20164;-75
2023/08/29 05:41:42;;;;;;;26.37;19.23;;;16.10;99.90;;;;;;5092651;28;20183;-76
2023/08/29 05:44:08;;;;;;;22.63;18.50;;;16.10;99.90;;;;;;5092847;28;20175;-75
2023/08/29 05:46:33;;;;;;;24.13;19.33;;;16.10;99.90;;;;;;5093190;28;20683;-75
2023/08/29 05:48:59;;;;;;;20.40;17.90;;;16.30;99.90;;;;;;5091444;28;20243;-74
2023/08/29 05:51:26;;;;;;;22.50;18.77;;;16.40;99.90;;;;;;5092911;28;20176;-75
2023/08/29 05:53:52;;;;;;;27.63;19.07;;;16.50;99.90;;;;;;5092409;28;20674;-75
2023/08/29 05:56:17;;;;;;;28.63;21.17;;;16.60;99.90;;;;;;5092591;28;20175;-75
2023/08/29 05:58:43;;;;;;;23.53;18.93;;;16.70;99.90;;;;;;5092460;28;20631;-77
2023/08/29 06:01:09;;;;;;;25.47;19.10;;;16.70;99.90;;;;;;5091527;28;20245;-75
2023/08/29 06:03:35;;;;;;;19.97;17.87;;;16.70;99.90;;;;;;5092570;28;20184;-73
2023/08/29 06:06:03;;;;;;;23.30;17.30;;;16.80;99.90;;;;;;5091964;28;20172;-76
2023/08/29 06:08:33;;;;;;;24.03;18.23;;;17.00;99.90;;;;;;5092751;28;20175;-76
2023/08/29 06:11:00;;;;;;;19.53;16.87;;;17.10;99.90;;;;;;5090473;28;20163;-75
2023/08/29 06:13:25;;;;;;;22.00;17.47;;;17.30;99.90;;;;;;5092595;28;20200;-76
2023/08/29 06:15:51;;;;;;;24.63;17.30;;;17.50;99.90;;;;;;5092881;28;20175;-76
2023/08/29 06:18:17;;;;;;;20.00;17.13;;;17.30;99.90;;;;;;5092157;28;20673;-77
2023/08/29 06:20:42;;;;;;;22.43;17.10;;;17.40;99.90;;;;;;5091123;28;20171;-74
2023/08/29 06:23:08;;;;;;;20.17;15.93;;;17.50;99.90;;;;;;5092416;28;20345;-77
2023/08/29 06:25:33;;;;;;;18.47;16.40;;;17.70;99.90;;;;;;5092229;28;20167;-74
2023/08/29 06:27:59;;;;;;;20.50;15.10;;;18.10;99.90;;;;;;5092206;28;20179;-75
2023/08/29 06:30:26;;;;;;;18.57;15.33;;;18.50;99.90;;;;;;5092390;28;20183;-73
2023/08/29 06:32:51;;;;;;;23.27;15.67;;;18.70;99.90;;;;;;5090893;28;20282;-75
2023/08/29 06:35:17;;;;;;;17.25;14.48;;;19.00;99.90;;;;;;5092102;28;20163;-74
2023/08/29 06:37:42;;;;;;;16.42;14.55;;;19.40;99.90;;;;;;5091679;28;20176;-75
2023/08/29 06:40:10;;;;;;;15.85;14.15;;;20.00;99.90;;;;;;5092281;28;20222;-76
2023/08/29 06:42:37;;;;;;;17.42;13.30;;;20.60;99.90;;;;;;5092546;28;20254;-75
2023/08/29 06:45:03;;;;;;;13.27;11.88;;;21.10;99.90;;;;;;5090579;28;20188;-75
2023/08/29 06:47:29;;;;;;;14.65;11.18;;;21.60;99.90;;;;;;5091927;28;20327;-76
2023/08/29 06:49:55;;;;;;;14.38;12.07;;;22.20;99.90;;;;;;5092405;28;20251;-77
2023/08/29 06:52:23;;;;;;;13.07;11.38;;;23.30;99.90;;;;;;5091732;28;20679;-76
2023/08/29 06:54:49;;;;;;;15.90;11.23;;;24.40;99.90;;;;;;5091435;28;20168;-74
2023/08/29 06:57:14;;;;;;;12.73;10.60;;;25.20;99.90;;;;;;5092603;28;20309;-76
2023/08/29 06:59:40;;;;;;;11.63;10.20;;;25.90;98.70;;;;;;5095865;28;20608;-77
2023/08/29 07:02:06;;;;;;;11.23;10.10;;;25.80;98.10;;;;;;5095670;28;20171;-75
2023/08/29 07:04:32;;;;;;;13.30;11.55;;;25.40;98.10;;;;;;5095379;28;20627;-75
2023/08/29 07:06:57;;;;;;;12.10;10.95;;;25.00;99.00;;;;;;5095871;28;20175;-76
2023/08/29 07:09:27;;;;;;;11.57;10.38;;;24.80;99.40;;;;;;5095723;28;20255;-75
2023/08/29 07:11:53;;;;;;;11.48;10.38;;;24.40;99.90;;;;;;5095755;28;20258;-72
2023/08/29 07:14:18;;;;;;;12.30;11.02;;;23.90;99.90;;;;;;5077194;28;20173;-74
2023/08/29 07:16:44;;;;;;;11.20;10.20;;;23.40;99.90;;;;;;5080046;28;20183;-71
2023/08/29 07:19:11;;;;;;;11.60;10.38;;;22.70;99.90;;;;;;5079252;28;20626;-73
2023/08/29 07:21:37;;;;;;;11.90;10.68;;;22.30;99.90;;;;;;5094567;28;20168;-75
2023/08/29 07:24:04;;;;;;;11.52;10.52;;;21.90;99.90;;;;;;5095386;28;20667;-74
2023/08/29 07:26:30;;;;;;;11.90;10.68;;;21.80;99.90;;;;;;5095580;28;20217;-71
2023/08/29 07:28:56;;;;;;;11.77;10.68;;;21.90;99.90;;;;;;5094578;28;20172;-71
2023/08/29 07:31:22;;;;;;;12.45;9.52;;;21.90;99.90;;;;;;5095344;28;20221;-73
2023/08/29 07:33:48;;;;;;;10.88;9.77;;;21.90;99.90;;;;;;5094516;28;20203;-72
2023/08/29 07:36:13;;;;;;;12.45;10.20;;;21.50;99.90;;;;;;5094914;28;20255;-73
2023/08/29 07:38:39;;;;;;;10.77;9.70;;;21.50;99.90;;;;;;5095568;28;20584;-71
2023/08/29 07:41:05;;;;;;;12.32;10.52;;;21.50;99.90;;;;;;5094538;28;20556;-71
2023/08/29 07:43:30;;;;;;;9.60;8.63;;;21.50;99.90;;;;;;5087995;28;20667;-71
2023/08/29 07:45:58;;;;;;;10.07;8.93;;;21.60;99.90;;;;;;5094890;28;20180;-72
2023/08/29 07:48:24;;;;;;;10.88;8.77;;;21.50;99.90;;;;;;5094341;28;20249;-72
2023/08/29 07:50:49;;;;;;;9.18;8.35;;;21.00;99.90;;;;;;5095789;28;20170;-73
2023/08/29 07:53:15;;;;;;;10.02;8.88;;;20.90;99.90;;;;;;5115136;28;20618;-73
2023/08/29 07:55:41;;;;;;;9.63;8.50;;;20.80;99.90;;;;;;5115478;28;20522;-73
2023/08/29 07:58:07;;;;;;;8.63;7.85;;;20.90;99.90;;;;;;5101165;28;20178;-71
2023/08/29 08:00:33;;;;;;;8.63;7.82;;;20.90;99.90;;;;;;5095174;28;20229;-73
2023/08/29 08:03:00;;;;;;;9.35;7.95;;;20.70;99.90;;;;;;5093999;28;20723;-72
2023/08/29 08:05:25;;;;;;;9.25;8.00;;;20.80;99.90;;;;;;5094689;28;20225;-72
2023/08/29 08:07:51;;;;;;;9.38;7.38;;;20.80;99.90;;;;;;5094225;28;20188;-72
2023/08/29 08:10:17;;;;;;;7.63;6.95;;;20.90;99.90;;;;;;5094532;28;20661;-72
2023/08/29 08:12:46;;;;;;;9.52;7.13;;;20.90;99.90;;;;;;5093217;28;20234;-73
2023/08/29 08:15:12;;;;;;;8.40;7.63;;;20.80;99.90;;;;;;5094456;28;20168;-72
2023/08/29 08:17:38;;;;;;;7.07;6.38;;;20.90;99.90;;;;;;5094316;28;20171;-71
2023/08/29 08:20:07;;;;;;;8.98;8.02;;;20.80;99.90;;;;;;5094363;28;20223;-72
2023/08/29 08:22:39;;;;;;;8.88;6.60;;;20.60;99.90;;;;;;5093927;28;20257;-72
2023/08/29 08:25:09;;;;;;;7.70;7.00;;;20.30;99.90;;;;;;5093263;28;20665;-73
2023/08/29 08:27:34;;;;;;;6.20;5.80;;;20.40;99.90;;;;;;5094786;28;20172;-75
2023/08/29 08:30:00;;;;;;;7.25;6.30;;;20.50;99.90;;;;;;5093315;28;20275;-74
2023/08/29 08:32:26;;;;;;;8.18;6.45;;;20.30;99.90;;;;;;5092300;28;20507;-75
2023/08/29 08:34:54;;;;;;;7.00;6.40;;;20.30;99.90;;;;;;5094296;28;20597;-73
2023/08/29 08:37:20;;;;;;;6.95;6.22;;;20.50;99.90;;;;;;5093101;28;20589;-72
2023/08/29 08:39:45;;;;;;;11.07;9.02;;;20.70;99.90;;;;;;5103721;28;20183;-72
2023/08/29 08:42:11;;;;;;;5.95;4.93;;;21.00;99.90;;;;;;5114471;28;20224;-70
2023/08/29 08:44:38;;;;;;;6.82;5.47;;;20.90;99.90;;;;;;5114383;28;20186;-74
2023/08/29 08:47:05;;;;;;;9.18;6.10;;;21.00;99.90;;;;;;5113072;28;20167;-72
2023/08/29 08:49:31;;;;;;;6.22;5.65;;;21.10;99.90;;;;;;5113549;28;20172;-72
2023/08/29 08:51:58;;;;;;;6.25;5.40;;;21.30;99.90;;;;;;5113781;28;20167;-73
2023/08/29 08:54:24;;;;;;;6.40;5.78;;;21.50;99.90;;;;;;5114274;28;20722;-74
2023/08/29 08:56:51;;;;;;;8.57;5.15;;;21.60;99.90;;;;;;5113291;28;20182;-74
2023/08/29 08:59:17;;;;;;;5.45;4.90;;;21.20;99.90;;;;;;5114117;28;20209;-74
2023/08/29 09:01:43;;;;;;;5.35;4.63;;;20.80;99.90;;;;;;5113477;28;20819;-75
2023/08/29 09:04:09;;;;;;;5.38;4.60;;;20.90;99.90;;;;;;5114186;27;20269;-75
2023/08/29 09:06:35;;;;;;;4.47;4.07;;;20.90;99.90;;;;;;5114069;28;20242;-74
2023/08/29 09:09:23;;;;;;;4.82;4.30;;;21.00;99.90;;;;;;5113922;28;20313;-74
2023/08/29 09:11:53;;;;;;;4.22;3.88;;;21.10;99.90;;;;;;5113723;28;20167;-74
2023/08/29 09:14:19;;;;;;;4.22;3.92;;;21.00;99.90;;;;;;5095635;28;20745;-74
2023/08/29 09:16:45;;;;;;;4.03;3.72;;;20.90;99.90;;;;;;5093432;28;20180;-73
2023/08/29 09:19:15;;;;;;;3.75;3.50;;;20.90;99.90;;;;;;5093533;28;20220;-74
2023/08/29 09:21:43;;;;;;;4.55;4.28;;;20.90;99.90;;;;;;5092941;28;20175;-74
2023/08/29 09:24:21;;;;;;;4.68;4.25;;;21.20;99.90;;;;;;5092886;28;20176;-73
2023/08/29 09:26:46;;;;;;;4.82;4.50;;;21.40;99.90;;;;;;5092822;28;20187;-71
2023/08/29 09:29:20;;;;;;;4.45;4.05;;;21.40;99.90;;;;;;5111388;28;20183;-73
2023/08/29 09:31:49;;;;;;;4.15;3.85;;;21.70;99.90;;;;;;5113662;28;20170;-71
2023/08/29 09:34:29;;;;;;;4.30;3.90;;;21.90;99.90;;;;;;5113345;28;20187;-70
2023/08/29 09:36:56;;;;;;;4.10;3.90;;;22.30;99.90;;;;;;5098614;28;20660;-72
2023/08/29 09:39:22;;;;;;;3.28;3.10;;;22.20;99.90;;;;;;5084335;28;20619;-74
2023/08/29 09:42:07;;;;;;;5.43;4.93;;;22.40;99.90;;;;;;5092763;28;20172;-74
2023/08/29 09:44:38;;;;;;;3.88;3.38;;;22.40;99.90;;;;;;5092423;28;20167;-75
2023/08/29 09:47:05;;;;;;;5.75;3.60;;;22.20;99.90;;;;;;5093074;28;20171;-74
2023/08/29 09:49:51;;;;;;;3.22;3.03;;;22.20;99.90;;;;;;5092443;28;20168;-74
2023/08/29 09:52:18;;;;;;;3.80;3.60;;;22.00;99.90;;;;;;5090809;28;20700;-73
2023/08/29 09:54:46;;;;;;;3.95;3.63;;;22.20;99.90;;;;;;5092950;28;20172;-75
2023/08/29 09:57:15;;;;;;;4.45;4.03;;;22.20;99.90;;;;;;5092597;28;20186;-73
2023/08/29 09:59:42;;;;;;;4.13;3.83;;;22.40;99.90;;;;;;5097357;28;20178;-73
2023/08/29 10:02:11;;;;;;;3.40;3.20;;;22.10;99.90;;;;;;5103044;28;20240;-72
2023/08/29 10:04:41;;;;;;;2.88;2.55;;;22.10;99.90;;;;;;5075013;28;20548;-72
2023/08/29 10:07:08;;;;;;;2.30;2.10;;;22.40;99.90;;;;;;5072008;28;20171;-71
2023/08/29 10:09:35;;;;;;;1.80;1.65;;;22.80;99.90;;;;;;5071202;28;20168;-73
2023/08/29 10:12:03;;;;;;;5.30;2.58;;;23.40;99.90;;;;;;5070853;28;20167;-73
2023/08/29 10:14:29;;;;;;;2.60;2.20;;;23.50;99.90;;;;;;5072211;28;20628;-72
2023/08/29 10:16:58;;;;;;;2.28;2.08;;;24.30;99.90;;;;;;5071654;28;20678;-72
2023/08/29 10:19:25;;;;;;;2.35;1.80;;;25.20;98.10;;;;;;5071624;28;20232;-72
2023/08/29 10:21:53;;;;;;;2.95;2.38;;;26.00;95.60;;;;;;5072531;28;20161;-72
2023/08/29 10:24:20;;;;;;;2.17;2.08;;;25.80;95.40;;;;;;5087855;28;20199;-73
2023/08/29 10:26:46;;;;;;;2.17;2.08;;;25.70;95.10;;;;;;5090315;28;20172;-74
2023/08/29 10:29:11;;;;;;;2.42;2.22;;;25.70;95.20;;;;;;5091075;28;20183;-73
2023/08/29 10:31:38;;;;;;;2.78;2.58;;;26.00;94.20;;;;;;5092586;28;20185;-72
2023/08/29 10:34:04;;;;;;;2.67;2.58;;;25.70;94.40;;;;;;5095821;28;20212;-72
2023/08/29 10:36:30;;;;;;;3.13;2.75;;;25.50;95.40;;;;;;5096690;28;20178;-73
2023/08/29 10:38:56;;;;;;;3.00;2.80;;;25.90;94.80;;;;;;5096863;28;20172;-72
2023/08/29 10:41:22;;;;;;;4.30;3.08;;;26.50;94.60;;;;;;5095806;28;20694;-72
2023/08/29 10:43:50;;;;;;;2.88;2.60;;;26.80;93.60;;;;;;5096254;28;20639;-70
2023/08/29 10:46:16;;;;;;;2.88;2.67;;;27.40;91.30;;;;;;5096063;28;20168;-71
2023/08/29 10:48:42;;;;;;;3.15;2.53;;;26.10;92.10;;;;;;5094823;28;20164;-70
2023/08/29 10:51:08;;;;;;;2.53;2.42;;;25.80;92.80;;;;;;5096068;28;20718;-71
2023/08/29 10:54:06;;;;;;;2.53;1.90;;;26.00;92.10;;;;;;5095243;28;20338;-70
2023/08/29 10:56:42;;;;;;;1.83;1.73;;;26.50;90.60;;;;;;5095596;28;20164;-70
2023/08/29 10:59:28;;;;;;;2.38;2.28;;;26.60;89.60;;;;;;5096205;28;20191;-70
2023/08/29 11:02:27;;;;;;;3.38;2.33;;;25.70;89.30;;;;;;5095693;28;20168;-70
2023/08/29 11:05:09;;;;;;;2.08;1.98;;;25.20;92.00;;;;;;5094189;28;20225;-69
2023/08/29 11:07:35;;;;;;;2.22;1.77;;;25.30;90.90;;;;;;5096111;28;20214;-72
2023/08/29 11:10:21;;;;;;;2.30;2.10;;;26.00;90.70;;;;;;5095207;28;20168;-70
2023/08/29 11:13:09;;;;;;;3.20;1.90;;;25.50;90.60;;;;;;5095240;28;20212;-70
2023/08/29 11:15:47;;;;;;;3.35;3.15;;;25.60;91.20;;;;;;5095745;28;20192;-70
2023/08/29 11:18:32;;;;;;;2.92;2.72;;;26.50;89.90;;;;;;5095540;28;20164;-71
2023/08/29 11:21:04;;;;;;;3.20;3.00;;;25.80;90.20;;;;;;5095996;28;20160;-71
2023/08/29 11:23:38;;;;;;;2.53;2.42;;;24.70;92.90;;;;;;5095924;28;20164;-71
2023/08/29 11:26:04;;;;;;;3.35;2.38;;;24.10;96.10;;;;;;5094535;28;20171;-69
2023/08/29 11:28:37;;;;;;;2.25;2.10;;;25.00;94.70;;;;;;5095321;28;20199;-71
2023/08/29 11:31:04;;;;;;;2.53;2.42;;;25.90;92.50;;;;;;5095685;28;20615;-71
2023/08/29 11:33:34;;;;;;;4.18;3.75;;;26.50;90.90;;;;;;5095598;28;20204;-72
2023/08/29 11:36:05;;;;;;;3.80;3.60;;;26.10;90.80;;;;;;5094354;28;20175;-70
2023/08/29 11:38:31;;;;;;;4.03;3.80;;;25.20;92.00;;;;;;5095364;28;20160;-71
2023/08/29 11:40:58;;;;;;;4.30;4.00;;;24.80;93.70;;;;;;5088238;28;20275;-72
2023/08/29 11:43:25;;;;;;;4.10;3.80;;;24.90;93.50;;;;;;5105711;28;20240;-73
2023/08/29 11:45:57;;;;;;;4.05;3.85;;;25.30;92.80;;;;;;5104665;28;20695;-71
2023/08/29 11:48:28;;;;;;;3.67;3.40;;;25.80;92.40;;;;;;5111846;28;20176;-72
2023/08/29 11:51:05;;;;;;;3.30;3.10;;;25.80;90.30;;;;;;5102567;28;20189;-72
2023/08/29 11:53:32;;;;;;;8.38;3.40;;;25.50;91.70;;;;;;5102160;28;20235;-73
2023/08/29 11:55:59;;;;;;;2.70;2.60;;;25.20;92.00;;;;;;5110189;28;20646;-70
2023/08/29 11:58:29;;;;;;;3.50;3.20;;;25.20;91.90;;;;;;5097676;28;20665;-72
2023/08/29 12:00:55;;;;;;;3.80;3.53;;;25.30;93.30;;;;;;5106918;28;20168;-71
2023/08/29 12:03:27;;;;;;;4.00;3.80;;;25.20;93.30;;;;;;5106062;28;20187;-71
2023/08/29 12:05:57;;;;;;;3.70;3.47;;;25.30;92.80;;;;;;5099390;28;20233;-70
2023/08/29 12:08:38;;;;;;;3.63;3.42;;;25.60;91.80;;;;;;5099408;28;20187;-71
2023/08/29 12:11:06;;;;;;;5.32;3.50;;;25.60;91.80;;;;;;5089348;28;20775;-77
2023/08/29 12:13:33;;;;;;;3.88;3.65;;;24.60;93.60;;;;;;5092636;28;20223;-74
2023/08/29 12:15:59;;;;;;;3.83;3.60;;;24.10;94.80;;;;;;5086137;28;20566;-75
2023/08/29 12:18:25;;;;;;;3.72;3.03;;;23.60;96.20;;;;;;5094427;28;20203;-72
2023/08/29 12:21:07;;;;;;;3.90;3.60;;;23.30;96.70;;;;;;5103124;28;20187;-75
2023/08/29 12:23:33;;;;;;;3.75;3.47;;;23.20;98.10;;;;;;5114177;28;20209;-74
2023/08/29 12:25:59;;;;;;;2.90;2.70;;;23.30;97.60;;;;;;5089667;28;20180;-76
2023/08/29 12:28:25;;;;;;;3.70;3.40;;;23.30;98.40;;;;;;5093322;28;20184;-72
2023/08/29 12:30:54;;;;;;;4.25;3.25;;;23.30;98.70;;;;;;5105191;28;20171;-73
2023/08/29 12:33:20;;;;;;;4.25;3.67;;;22.90;99.80;;;;;;5114621;28;20199;-74
2023/08/29 12:35:46;;;;;;;3.92;3.63;;;22.80;99.90;;;;;;5114801;28;20186;-73
2023/08/29 12:38:11;;;;;;;4.43;3.92;;;22.80;99.90;;;;;;5113202;28;20168;-75